Time;durP1;ratioP1;P1;durP2;ratioP2;P2;SDS_P1;SDS_P2;PMS_P1;PMS_P2;Temp;Humidity;BMP_temperature;BMP_pressure;BME280_temperature;BME280_humidity;BME280_pressure;Samples;Min_cycle;Max_cycle;Signal;HPM_P1;HPM_P2
2023/10/13 00:01:19;;;;;;;1.13;0.80;;;;;;;;;;4978716;28;20035;-80
2023/10/13 00:03:45;;;;;;;1.10;1.00;;;;;;;;;;4981001;28;20030;-81
2023/10/13 00:06:11;;;;;;;1.40;1.00;;;;;;;;;;4980032;28;20034;-79
2023/10/13 00:08:39;;;;;;;1.00;0.85;;;;;;;;;;4980780;28;20050;-82
2023/10/13 00:11:05;;;;;;;1.30;1.15;;;;;;;;;;4980491;28;20022;-80
2023/10/13 00:13:50;;;;;;;0.80;0.73;;;;;;;;;;4980640;28;20023;-80
2023/10/13 00:16:17;;;;;;;0.82;0.80;;;;;;;;;;4980010;28;20489;-81
2023/10/13 00:18:44;;;;;;;0.70;0.70;;;;;;;;;;4979864;28;20068;-81
2023/10/13 00:21:13;;;;;;;1.30;0.90;;;;;;;;;;4979940;28;20038;-81
2023/10/13 00:23:53;;;;;;;1.05;0.80;;;;;;;;;;4980395;28;20037;-81
2023/10/13 00:26:23;;;;;;;1.27;1.13;;;;;;;;;;4980414;28;20033;-82
2023/10/13 00:28:58;;;;;;;1.20;0.88;;;;;;;;;;4981130;28;20478;-82
2023/10/13 00:31:32;;;;;;;0.70;0.70;;;;;;;;;;4998415;28;20054;-81
2023/10/13 00:34:09;;;;;;;1.52;1.20;;;;;;;;;;4980767;28;20036;-82
2023/10/13 00:36:35;;;;;;;0.95;0.75;;;;;;;;;;4982076;28;20022;-82
2023/10/13 00:39:03;;;;;;;1.25;0.85;;;;;;;;;;4982383;28;20035;-82
2023/10/13 00:44:16;;;;;;;1.00;0.80;;;;;;;;;;5004074;28;20049;-83
2023/10/13 00:46:44;;;;;;;1.02;0.80;;;;;;;;;;4983007;28;20030;-81
2023/10/13 00:49:10;;;;;;;1.38;0.90;;;;;;;;;;4983892;28;20030;-79
2023/10/13 00:51:47;;;;;;;1.17;0.90;;;;;;;;;;4998079;28;20030;-79
2023/10/13 00:54:16;;;;;;;1.15;0.70;;;;;;;;;;4998405;28;20049;-81
2023/10/13 00:57:29;;;;;;;1.20;0.90;;;;;;;;;;4998329;28;20028;-79
2023/10/13 00:59:33;;;;;;;1.13;0.85;;;;;;;;;;4999805;28;20035;-78
2023/10/13 01:02:25;;;;;;;1.10;0.80;;;;;;;;;;4996021;28;20082;-79
2023/10/13 01:04:46;;;;;;;1.45;1.02;;;;;;;;;;5012384;28;20030;-78
2023/10/13 01:07:13;;;;;;;1.63;1.10;;;;;;;;;;4993442;28;20022;-82
2023/10/13 01:09:43;;;;;;;1.00;0.90;;;;;;;;;;4982512;28;20034;-83
2023/10/13 01:12:09;;;;;;;1.70;0.82;;;;;;;;;;4984128;28;20057;-82
2023/10/13 01:14:35;;;;;;;0.95;0.85;;;;;;;;;;4984135;28;20031;-83
2023/10/13 01:17:04;;;;;;;1.30;1.00;;;;;;;;;;4981829;28;20054;-80
2023/10/13 01:19:30;;;;;;;1.00;0.70;;;;;;;;;;4982237;28;20022;-81
2023/10/13 01:22:04;;;;;;;1.02;0.80;;;;;;;;;;4980873;28;20034;-82
2023/10/13 01:24:36;;;;;;;0.80;0.70;;;;;;;;;;4979437;28;20050;-81
2023/10/13 01:27:20;;;;;;;1.13;0.82;;;;;;;;;;4979764;28;20030;-81
2023/10/13 01:29:50;;;;;;;1.13;0.80;;;;;;;;;;4980850;28;20036;-81
2023/10/13 01:32:18;;;;;;;1.30;0.90;;;;;;;;;;4981137;28;20117;-82
2023/10/13 01:34:46;;;;;;;1.55;1.15;;;;;;;;;;4980843;28;20097;-82
2023/10/13 01:37:13;;;;;;;1.55;1.15;;;;;;;;;;4979490;28;20528;-81
2023/10/13 01:39:39;;;;;;;1.35;1.02;;;;;;;;;;4980056;28;20034;-83
2023/10/13 01:42:06;;;;;;;1.38;1.00;;;;;;;;;;4979664;28;20030;-81
2023/10/13 01:44:32;;;;;;;2.72;1.33;;;;;;;;;;4979644;28;20025;-81
2023/10/13 01:46:59;;;;;;;1.02;0.73;;;;;;;;;;4980394;28;20057;-83
2023/10/13 01:49:25;;;;;;;0.82;0.70;;;;;;;;;;4980322;28;20509;-82
2023/10/13 01:51:51;;;;;;;1.42;1.10;;;;;;;;;;4981416;28;20486;-82
2023/10/13 01:54:18;;;;;;;1.33;0.90;;;;;;;;;;4982330;28;20070;-82
2023/10/13 01:56:44;;;;;;;0.80;0.73;;;;;;;;;;4982998;28;20077;-83
2023/10/13 01:59:13;;;;;;;1.05;0.80;;;;;;;;;;4983454;28;20037;-82
2023/10/13 02:01:41;;;;;;;1.45;1.17;;;;;;;;;;4984129;28;20474;-82
2023/10/13 02:04:10;;;;;;;0.90;0.80;;;;;;;;;;4985047;28;20057;-82
2023/10/13 02:06:36;;;;;;;1.00;0.80;;;;;;;;;;4991127;28;20089;-82
2023/10/13 02:09:13;;;;;;;1.17;0.88;;;;;;;;;;4994270;28;20022;-81
2023/10/13 02:11:45;;;;;;;1.00;0.75;;;;;;;;;;4994481;28;20041;-84
2023/10/13 02:14:12;;;;;;;0.70;0.70;;;;;;;;;;4997152;28;20030;-84
2023/10/13 02:16:39;;;;;;;1.10;0.95;;;;;;;;;;4994335;28;20054;-84
2023/10/13 02:19:05;;;;;;;0.80;0.70;;;;;;;;;;4990111;28;20041;-81
2023/10/13 02:21:39;;;;;;;1.00;0.90;;;;;;;;;;4982604;28;20023;-83
2023/10/13 02:24:18;;;;;;;1.10;0.85;;;;;;;;;;4982566;28;20026;-81
2023/10/13 02:26:45;;;;;;;1.20;0.70;;;;;;;;;;4982665;28;20023;-83
2023/10/13 02:29:13;;;;;;;1.00;0.80;;;;;;;;;;4982379;28;20033;-83
2023/10/13 02:31:41;;;;;;;1.40;1.10;;;;;;;;;;4982845;28;20088;-82
2023/10/13 02:34:07;;;;;;;1.02;0.75;;;;;;;;;;4982820;28;20022;-82
2023/10/13 02:36:37;;;;;;;1.92;1.38;;;;;;;;;;4983440;28;20478;-83
2023/10/13 02:39:07;;;;;;;1.02;0.80;;;;;;;;;;4983003;28;20031;-84
2023/10/13 02:41:36;;;;;;;1.10;0.82;;;;;;;;;;4983429;28;20026;-82
2023/10/13 02:44:06;;;;;;;0.90;0.70;;;;;;;;;;4984062;28;20037;-81
2023/10/13 02:46:36;;;;;;;1.00;0.90;;;;;;;;;;4983698;28;20090;-84
2023/10/13 02:49:10;;;;;;;1.00;0.80;;;;;;;;;;4984385;28;20113;-81
2023/10/13 02:51:37;;;;;;;1.20;1.05;;;;;;;;;;4985573;28;20034;-81
2023/10/13 02:54:09;;;;;;;1.38;1.27;;;;;;;;;;4985240;28;20029;-81
2023/10/13 02:56:36;;;;;;;1.73;0.90;;;;;;;;;;4986264;28;20027;-81
2023/10/13 02:59:05;;;;;;;1.10;0.80;;;;;;;;;;4992643;28;20023;-83
2023/10/13 03:01:35;;;;;;;0.90;0.70;;;;;;;;;;4989351;28;20114;-82
2023/10/13 03:04:08;;;;;;;1.10;0.80;;;;;;;;;;4983836;28;20045;-81
2023/10/13 03:06:35;;;;;;;0.90;0.80;;;;;;;;;;4984134;28;20034;-83
2023/10/13 03:09:17;;;;;;;1.63;0.90;;;;;;;;;;4983038;28;20061;-81
2023/10/13 03:11:48;;;;;;;0.98;0.70;;;;;;;;;;4983209;28;20073;-81
2023/10/13 03:14:23;;;;;;;1.40;1.02;;;;;;;;;;4983425;28;20050;-81
2023/10/13 03:17:04;;;;;;;1.20;0.93;;;;;;;;;;4983650;28;20018;-82
2023/10/13 03:19:34;;;;;;;1.02;0.70;;;;;;;;;;4983860;28;20462;-80
2023/10/13 03:22:09;;;;;;;1.20;1.05;;;;;;;;;;4983132;28;20045;-81
2023/10/13 03:24:35;;;;;;;1.20;1.00;;;;;;;;;;4984280;28;20115;-81
2023/10/13 03:27:11;;;;;;;1.20;0.90;;;;;;;;;;4985303;28;20041;-82
2023/10/13 03:29:44;;;;;;;0.90;0.70;;;;;;;;;;4988052;28;20022;-83
2023/10/13 03:32:15;;;;;;;1.40;0.98;;;;;;;;;;4989668;28;20482;-84
2023/10/13 03:37:38;;;;;;;1.10;0.93;;;;;;;;;;5003437;28;20034;-82
2023/10/13 03:45:26;;;;;;;1.60;1.00;;;;;;;;;;5000937;28;20034;-83
2023/10/13 03:47:52;;;;;;;0.90;0.70;;;;;;;;;;4984608;28;20093;-81
2023/10/13 03:50:31;;;;;;;0.90;0.80;;;;;;;;;;4983234;28;20030;-81
2023/10/13 03:53:00;;;;;;;1.20;0.82;;;;;;;;;;4980778;28;20022;-83
2023/10/13 03:55:27;;;;;;;1.90;1.08;;;;;;;;;;4982182;28;20029;-82
2023/10/13 03:57:53;;;;;;;2.38;0.95;;;;;;;;;;4980874;28;20030;-81
2023/10/13 04:00:27;;;;;;;1.45;0.90;;;;;;;;;;4980663;28;20022;-81
2023/10/13 04:03:08;;;;;;;1.48;0.95;;;;;;;;;;4977527;28;20054;-81
2023/10/13 04:21:55;;;;;;;;;;;;;;;;;;4978945;28;20027;-83
2023/10/13 04:24:23;;;;;;;1.25;0.90;;;;;;;;;;4977330;28;19906;-82
2023/10/13 04:27:27;;;;;;;1.13;0.85;;;;;;;;;;4977547;28;20031;-81
2023/10/13 04:32:32;;;;;;;1.23;0.90;;;;;;;;;;4978524;28;20023;-80
2023/10/13 04:35:10;;;;;;;1.30;1.20;;;;;;;;;;4978759;28;20477;-81
2023/10/13 04:37:58;;;;;;;1.20;1.10;;;;;;;;;;4980477;28;20487;-82
2023/10/13 04:40:25;;;;;;;1.40;1.08;;;;;;;;;;4979687;28;20463;-81
2023/10/13 04:43:04;;;;;;;1.77;1.50;;;;;;;;;;4980610;28;20023;-81
2023/10/13 04:50:45;;;;;;;1.33;1.00;;;;;;;;;;4982495;28;20125;-82
2023/10/13 04:53:28;;;;;;;1.10;0.90;;;;;;;;;;4981385;28;20034;-80
2023/10/13 05:47:50;;;;;;;3.22;1.25;;;;;;;;;;4984225;28;20041;-83
2023/10/13 06:28:41;;;;;;;1.10;0.90;;;;;;;;;;4983848;28;20038;-82
2023/10/13 06:31:08;;;;;;;1.27;0.98;;;;;;;;;;4982648;28;20022;-83
2023/10/13 06:33:35;;;;;;;1.33;1.08;;;;;;;;;;4983301;28;20051;-82
2023/10/13 06:36:09;;;;;;;1.20;0.90;;;;;;;;;;4983135;28;20050;-82
2023/10/13 06:38:38;;;;;;;1.70;1.17;;;;;;;;;;4983619;28;20026;-83
2023/10/13 06:41:08;;;;;;;1.65;1.15;;;;;;;;;;4984127;28;20050;-85
2023/10/13 06:43:40;;;;;;;1.20;0.98;;;;;;;;;;4986007;28;20027;-83
2023/10/13 06:46:16;;;;;;;0.80;0.80;;;;;;;;;;4987090;28;20034;-84
2023/10/13 06:48:43;;;;;;;1.13;0.90;;;;;;;;;;4986943;28;20050;-83
2023/10/13 06:51:21;;;;;;;1.58;1.17;;;;;;;;;;4985842;28;20030;-82
2023/10/13 06:53:48;;;;;;;1.10;0.93;;;;;;;;;;4986684;28;20051;-85
2023/10/13 06:56:39;;;;;;;1.60;1.02;;;;;;;;;;4986682;28;20023;-84
2023/10/13 06:59:07;;;;;;;2.00;1.02;;;;;;;;;;4986426;28;20403;-85
2023/10/13 07:01:40;;;;;;;1.33;1.10;;;;;;;;;;4970705;28;20046;-83
2023/10/13 07:04:14;;;;;;;0.68;0.68;;;;;;;;;;4982588;28;20022;-82
2023/10/13 07:06:44;;;;;;;1.15;0.85;;;;;;;;;;4982448;28;20118;-83
2023/10/13 07:09:27;;;;;;;3.03;1.42;;;;;;;;;;4982448;28;20164;-82
2023/10/13 07:11:54;;;;;;;1.73;1.20;;;;;;;;;;4982915;28;20026;-83
2023/10/13 07:14:20;;;;;;;1.48;0.93;;;;;;;;;;4982506;28;20118;-81
2023/10/13 07:17:02;;;;;;;2.17;1.10;;;;;;;;;;4983412;28;20033;-82
2023/10/13 07:19:28;;;;;;;1.23;0.93;;;;;;;;;;4983728;28;20030;-81
2023/10/13 07:22:03;;;;;;;1.40;1.10;;;;;;;;;;4985109;28;20030;-83
2023/10/13 07:24:32;;;;;;;1.08;0.77;;;;;;;;;;4985881;28;20398;-81
2023/10/13 07:27:03;;;;;;;1.20;0.98;;;;;;;;;;4987463;28;20114;-83
2023/10/13 07:29:30;;;;;;;2.13;1.15;;;;;;;;;;4992664;28;20038;-83
2023/10/13 07:31:56;;;;;;;2.33;1.20;;;;;;;;;;4995836;28;20022;-85
2023/10/13 07:34:43;;;;;;;1.92;0.95;;;;;;;;;;4986693;28;20053;-82
2023/10/13 07:37:09;;;;;;;0.90;0.80;;;;;;;;;;5003824;28;20030;-81
2023/10/13 07:39:38;;;;;;;1.52;0.90;;;;;;;;;;4987615;28;20030;-81
2023/10/13 07:42:15;;;;;;;1.88;0.80;;;;;;;;;;4989614;28;20073;-84
2023/10/13 07:44:45;;;;;;;1.70;1.10;;;;;;;;;;4990954;28;20474;-83
2023/10/13 07:47:14;;;;;;;1.50;1.08;;;;;;;;;;4987459;28;20084;-84
2023/10/13 07:49:40;;;;;;;1.10;0.98;;;;;;;;;;4987153;28;20030;-81
2023/10/13 07:54:55;;;;;;;0.95;0.80;;;;;;;;;;5007141;28;20030;-83
2023/10/13 07:57:29;;;;;;;0.77;0.75;;;;;;;;;;4989302;28;20486;-81
2023/10/13 08:00:11;;;;;;;1.63;1.05;;;;;;;;;;4990296;28;20030;-81
2023/10/13 08:02:48;;;;;;;0.70;0.70;;;;;;;;;;4985129;28;20051;-80
2023/10/13 08:05:24;;;;;;;1.33;1.20;;;;;;;;;;4985642;28;20041;-84
2023/10/13 08:07:52;;;;;;;1.60;1.02;;;;;;;;;;4985614;28;20102;-82
2023/10/13 08:10:18;;;;;;;2.28;1.02;;;;;;;;;;4983694;28;20034;-81
2023/10/13 08:12:44;;;;;;;1.00;0.90;;;;;;;;;;4985262;28;20022;-84
2023/10/13 08:15:21;;;;;;;0.85;0.85;;;;;;;;;;4987152;28;20026;-85
2023/10/13 08:17:47;;;;;;;1.23;1.00;;;;;;;;;;4990536;28;20023;-84
2023/10/13 08:20:16;;;;;;;1.27;0.90;;;;;;;;;;4968025;28;20369;-81
2023/10/13 08:22:48;;;;;;;1.25;1.15;;;;;;;;;;4966523;29;20031;-82
2023/10/13 08:25:24;;;;;;;1.13;0.93;;;;;;;;;;4966629;29;20095;-82
2023/10/13 08:28:46;;;;;;;1.25;1.10;;;;;;;;;;4965714;29;20036;-82
2023/10/13 08:30:52;;;;;;;0.77;0.77;;;;;;;;;;5000613;28;20080;-82
2023/10/13 08:33:18;;;;;;;1.67;1.05;;;;;;;;;;5005352;28;20172;-83
2023/10/13 08:35:55;;;;;;;1.27;1.10;;;;;;;;;;5006021;28;20030;-81
2023/10/13 08:38:28;;;;;;;1.63;1.05;;;;;;;;;;5002793;28;20086;-82
2023/10/13 08:43:45;;;;;;;1.27;1.10;;;;;;;;;;5009037;28;20034;-80
2023/10/13 08:46:26;;;;;;;0.70;0.70;;;;;;;;;;5005111;28;20388;-82
2023/10/13 08:49:03;;;;;;;1.83;0.85;;;;;;;;;;5003620;28;20069;-81
2023/10/13 08:51:43;;;;;;;0.68;0.68;;;;;;;;;;5003979;28;20019;-81
2023/10/13 08:54:19;;;;;;;0.60;0.60;;;;;;;;;;5002227;28;20026;-86
2023/10/13 08:56:54;;;;;;;0.88;0.88;;;;;;;;;;4986513;28;20061;-85
2023/10/13 09:08:08;;;;;;;0.93;0.85;;;;;;;;;;4944179;29;20416;-84
2023/10/13 09:10:44;;;;;;;1.10;0.90;;;;;;;;;;4930595;29;20139;-84
2023/10/13 09:13:18;;;;;;;1.25;1.02;;;;;;;;;;4947554;29;20039;-83
2023/10/13 09:15:59;;;;;;;1.92;1.45;;;486.40;2380.80;;;;;;4946124;29;20039;-82
2023/10/13 09:18:46;;;;;;;0.70;0.70;;;461.70;2380.80;;;;;;4929005;29;20039;-83
2023/10/13 09:26:42;;;;;;;0.52;0.52;;;;;;;;;;4949986;29;20042;-81
2023/10/13 09:29:18;;;;;;;1.02;0.88;;;;;;;;;;4948093;29;20059;-82
2023/10/13 09:31:50;;;;;;;0.98;0.80;;;;;;;;;;4909139;29;20044;-84
2023/10/13 09:34:20;;;;;;;0.85;0.80;;;;;;;;;;4926147;29;20527;-82
2023/10/13 09:36:47;;;;;;;1.05;0.90;;;;;;;;;;4937881;28;20032;-84
2023/10/13 09:39:29;;;;;;;0.60;0.60;;;;;;;;;;4993644;28;20088;-83
2023/10/13 09:41:56;;;;;;;0.70;0.70;;;;;;;;;;4988629;28;20037;-82
2023/10/13 09:44:22;;;;;;;2.28;0.82;;;;;;;;;;4982243;28;20058;-82
2023/10/13 09:46:49;;;;;;;0.73;0.70;;;;;;;;;;4974852;28;20034;-81
2023/10/13 09:49:33;;;;;;;1.33;0.75;;;;;;;;;;4969037;28;20026;-81
2023/10/13 09:52:02;;;;;;;0.60;0.60;;;;;;;;;;4970099;28;20058;-82
2023/10/13 09:54:36;;;;;;;1.13;0.82;;;;;;;;;;4969610;28;20054;-80
2023/10/13 09:57:12;;;;;;;0.80;0.80;;;;;;;;;;4973151;28;20095;-85
2023/10/13 09:59:55;;;;;;;0.95;0.80;;;;;;;;;;4973515;28;20046;-80
2023/10/13 10:02:25;;;;;;;0.73;0.70;;;;;;;;;;4971153;28;20043;-80
2023/10/13 10:07:59;;;;;;;0.50;0.50;;;;;;;;;;4952151;29;20038;-80
2023/10/13 10:10:41;;;;;;;1.08;0.80;;;;;;;;;;4931596;29;20084;-82
2023/10/13 10:13:34;;;;;;;0.73;0.70;;;;;;;;;;4892986;29;20032;-80
2023/10/13 10:16:04;;;;;;;0.60;0.60;;;;;;;;;;4915132;29;20048;-80
2023/10/13 10:18:30;;;;;;;1.15;0.90;;;;;;;;;;4902967;29;20071;-82
2023/10/13 10:21:09;;;;;;;1.20;0.88;;;;;;;;;;4916065;29;20028;-81
2023/10/13 10:23:38;;;;;;;0.80;0.60;;;;;;;;;;4889969;29;20089;-81
2023/10/13 10:26:15;;;;;;;0.55;0.55;;;;;;;;;;4912448;29;20505;-85
2023/10/13 10:28:44;;;;;;;1.17;0.70;;;;;;;;;;4900190;29;20123;-84
2023/10/13 10:31:19;;;;;;;0.65;0.65;;;;;;;;;;4887903;29;20602;-82
2023/10/13 10:33:50;;;;;;;1.05;0.90;;;;;;;;;;4899206;29;20126;-84
2023/10/13 10:36:17;;;;;;;3.03;0.95;;;;;;;;;;4911489;29;20020;-83
2023/10/13 10:38:54;;;;;;;0.80;0.68;;;;;;;;;;4899215;29;20057;-87
2023/10/13 10:41:29;;;;;;;0.77;0.77;;;;;;;;;;4890282;29;20080;-86
2023/10/13 10:43:55;;;;;;;0.57;0.57;;;;;;;;;;4926208;28;20496;-84
2023/10/13 10:46:37;;;;;;;0.50;0.50;;;;;;;;;;4970073;28;20034;-85
2023/10/13 10:49:08;;;;;;;0.52;0.52;;;;;;;;;;4960356;28;20035;-83
2023/10/13 10:51:43;;;;;;;1.25;0.90;;;;;;;;;;4969962;28;20027;-85
2023/10/13 10:54:18;;;;;;;0.70;0.70;;;;;;;;;;4968002;28;20058;-83
2023/10/13 10:56:44;;;;;;;0.65;0.65;;;;;;;;;;4976028;28;20081;-84
2023/10/13 10:59:22;;;;;;;0.98;0.85;;;;;;;;;;4960405;28;20101;-84
2023/10/13 11:01:51;;;;;;;0.95;0.95;;;;;;;;;;4967294;28;20424;-84
2023/10/13 11:04:24;;;;;;;1.17;0.73;;;;;;;;;;4969447;28;20023;-85
2023/10/13 11:06:59;;;;;;;0.70;0.70;;;;;;;;;;4960311;28;20038;-85
2023/10/13 11:11:52;;;;;;;0.90;0.77;;;;;;;;;;4966644;28;20446;-86
2023/10/13 11:14:25;;;;;;;1.25;1.05;;;;;;;;;;4963292;28;20028;-84
2023/10/13 11:16:54;;;;;;;0.60;0.60;;;;;;;;;;4972597;28;20074;-85
2023/10/13 11:19:43;;;;;;;0.45;0.45;;;;;;;;;;4961071;28;20027;-84
2023/10/13 11:22:29;;;;;;;0.70;0.60;;;;;;;;;;4964227;28;20035;-85
2023/10/13 11:25:11;;;;;;;0.45;0.45;;;;;;;;;;4971827;28;20475;-82
2023/10/13 11:30:20;;;;;;;0.73;0.60;;;;;;;;;;4964419;28;20114;-83
2023/10/13 11:32:46;;;;;;;0.50;0.50;;;;;;;;;;4971688;28;20034;-86
2023/10/13 11:35:28;;;;;;;0.60;0.55;;;;;;;;;;4959665;28;20106;-85
2023/10/13 11:38:03;;;;;;;0.45;0.45;;;;;;;;;;4967205;28;20399;-84
2023/10/13 11:43:21;;;;;;;0.55;0.52;;;;;;;;;;4961537;28;20084;-82
2023/10/13 11:46:12;;;;;;;0.55;0.43;;;;;;;;;;4966209;28;20034;-83
2023/10/13 11:48:41;;;;;;;0.40;0.40;;;;;;;;;;4971162;28;20038;-83
2023/10/13 11:51:08;;;;;;;0.47;0.45;;;;;;;;;;4959000;28;20116;-82
2023/10/13 11:53:35;;;;;;;0.35;0.35;;;;;;;;;;4968198;28;20472;-83
2023/10/13 11:56:01;;;;;;;0.77;0.68;;;;;;;;;;4965877;28;20026;-84
2023/10/13 11:58:30;;;;;;;0.60;0.60;;;;;;;;;;4975060;28;20038;-84
2023/10/13 12:01:20;;;;;;;0.63;0.50;;;;;;;;;;4960234;28;20027;-82
2023/10/13 12:06:40;;;;;;;0.95;0.60;;;;;;;;;;4970808;28;20034;-82
2023/10/13 12:11:45;;;;;;;0.45;0.43;;;;;;;;;;4967677;28;20035;-81
2023/10/13 12:14:37;;;;;;;0.50;0.50;;;;;;;;;;4967579;28;20034;-82
2023/10/13 12:17:04;;;;;;;0.98;0.63;;;;;;;;;;4958726;28;20026;-82
2023/10/13 12:19:30;;;;;;;1.90;0.90;;;;;;;;;;4968217;28;20509;-82
2023/10/13 12:21:57;;;;;;;0.40;0.40;;;;;;;;;;4964663;28;20022;-82
2023/10/13 12:27:03;;;;;;;0.43;0.43;;;;;;;;;;4959004;28;20067;-84
2023/10/13 12:29:29;;;;;;;0.55;0.40;;;;;;;;;;4968467;28;20039;-83
2023/10/13 12:32:09;;;;;;;1.20;0.70;;;;;;;;;;4964788;28;20023;-83
2023/10/13 12:53:49;;;;;;;0.47;0.40;;;742.60;1817.60;;;;;;4966803;28;20030;-83
2023/10/13 12:56:15;;;;;;;1.05;0.63;;;742.80;1817.60;;;;;;4954632;29;20027;-82
2023/10/13 12:58:41;;;;;;;0.30;0.30;;;742.90;1766.40;;;;;;4970757;28;20034;-81
2023/10/13 13:01:08;;;;;;;0.20;0.20;;;742.90;1766.40;;;;;;4958383;28;20027;-81
2023/10/13 13:03:34;;;;;;;0.30;0.30;;;742.90;1740.80;;;;;;4970723;28;20043;-81
2023/10/13 13:06:07;;;;;;;0.40;0.40;;;743.00;1792.00;;;;;;4968604;28;20117;-81
2023/10/13 13:08:42;;;;;;;0.55;0.40;;;742.90;1740.80;;;;;;4963191;28;20038;-82
2023/10/13 13:11:10;;;;;;;0.40;0.40;;;742.80;1715.20;;;;;;4961154;28;20026;-83
2023/10/13 13:13:36;;;;;;;0.98;0.57;;;742.60;1740.80;;;;;;4987480;28;20110;-83
2023/10/13 13:16:03;;;;;;;0.68;0.55;;;742.50;1740.80;;;;;;4968698;28;20114;-83
2023/10/13 13:18:29;;;;;;;0.65;0.55;;;742.40;1766.40;;;;;;4964251;28;20614;-83
2023/10/13 13:20:55;;;;;;;1.00;0.80;;;717.70;1740.80;;;;;;4977366;28;20046;-83
2023/10/13 13:23:31;;;;;;;0.65;0.32;;;742.40;1766.40;;;;;;4963815;28;20022;-84
2023/10/13 13:25:56;;;;;;;0.85;0.55;;;717.60;1740.80;;;;;;4967569;28;20031;-84
2023/10/13 13:28:24;;;;;;;0.85;0.77;;;742.60;1792.00;;;;;;4970755;28;20042;-84
2023/10/13 13:30:50;;;;;;;0.50;0.47;;;742.50;1766.40;;;;;;4961083;28;20037;-83
2023/10/13 13:33:23;;;;;;;1.05;0.50;;;742.60;1740.80;;;;;;4972882;28;20081;-83
2023/10/13 13:35:52;;;;;;;0.40;0.40;;;742.70;1792.00;;;;;;4983884;28;20054;-83
2023/10/13 13:38:29;;;;;;;0.95;0.60;;;742.80;1740.80;;;;;;4964943;28;20440;-82
2023/10/13 13:40:55;;;;;;;0.40;0.40;;;742.90;1766.40;;;;;;4973895;28;20078;-82
2023/10/13 13:46:09;;;;;;;0.75;0.50;;;742.60;1740.80;;;;;;5010959;28;20032;-84
2023/10/13 13:48:40;;;;;;;0.32;0.32;;;742.40;1740.80;;;;;;5005033;28;20072;-83
2023/10/13 13:51:26;;;;;;;0.52;0.50;;;742.50;1766.40;;;;;;4983294;28;20496;-81
2023/10/13 13:53:52;;;;;;;0.80;0.65;;;742.40;1766.40;;;;;;5003970;28;20117;-82
2023/10/13 13:56:19;;;;;;;0.82;0.50;;;742.40;1792.00;;;;;;4995875;28;20116;-81
2023/10/13 13:58:46;;;;;;;0.95;0.52;;;717.50;1766.40;;;;;;4983640;28;20026;-81
2023/10/13 14:01:12;;;;;;;0.30;0.30;;;717.40;1792.00;;;;;;4992328;28;20031;-82
2023/10/13 14:03:45;;;;;;;0.70;0.55;;;717.00;1817.60;;;;;;4996375;28;20109;-81
2023/10/13 14:06:17;;;;;;;0.95;0.70;;;691.90;1792.00;;;;;;4996465;28;20049;-82
2023/10/13 14:08:48;;;;;;;0.70;0.47;;;691.70;1817.60;;;;;;4978315;28;20048;-82
2023/10/13 14:11:22;;;;;;;0.45;0.43;;;691.60;1817.60;;;;;;4999847;28;20041;-83
2023/10/13 14:13:57;;;;;;;0.40;0.40;;;691.50;1868.80;;;;;;4999845;28;20109;-83
2023/10/13 14:16:23;;;;;;;0.40;0.40;;;;;;;;;;5000065;28;20136;-84
2023/10/13 14:18:52;;;;;;;1.23;0.80;;;;;;;;;;5007107;28;20030;-82
2023/10/13 14:21:18;;;;;;;0.57;0.43;;;691.30;1868.80;;;;;;4977508;28;20031;-83
2023/10/13 14:23:49;;;;;;;0.70;0.63;;;666.30;1894.40;;;;;;4960817;28;20027;-82
2023/10/13 14:26:25;;;;;;;0.38;0.38;;;666.20;1868.80;;;;;;4961582;28;20443;-84
2023/10/13 14:29:05;;;;;;;2.22;0.60;;;666.10;1920.00;;;;;;4961529;28;20404;-84
2023/10/13 14:31:32;;;;;;;1.00;0.63;;;666.00;1945.60;;;;;;4960558;28;20026;-82
2023/10/13 14:33:58;;;;;;;0.85;0.55;;;665.90;1945.60;;;;;;4977149;28;20118;-82
2023/10/13 14:36:28;;;;;;;0.68;0.57;;;666.00;1971.20;;;;;;4961948;28;20357;-83
2023/10/13 14:38:57;;;;;;;0.88;0.60;;;665.80;1971.20;;;;;;4960840;28;20034;-83
2023/10/13 14:41:23;;;;;;;0.70;0.50;;;665.80;1971.20;;;;;;4976974;28;20069;-84
2023/10/13 14:43:48;;;;;;;0.85;0.52;;;665.60;1971.20;;;;;;4960985;28;20200;-83
2023/10/13 14:46:15;;;;;;;1.27;0.63;;;665.60;1996.80;;;;;;4960936;28;20475;-84
2023/10/13 14:48:42;;;;;;;1.85;1.13;;;;;;;;;;4960463;28;20129;-83
2023/10/13 14:51:18;;;;;;;1.92;1.40;;;;;;;;;;4960877;28;20442;-83
2023/10/13 14:53:44;;;;;;;2.03;1.05;;;665.60;1996.80;;;;;;4960945;28;20094;-85
2023/10/13 14:56:14;;;;;;;1.45;0.90;;;640.60;1996.80;;;;;;4960375;28;20054;-81
2023/10/13 14:58:43;;;;;;;1.50;0.90;;;640.60;2022.40;;;;;;4960516;28;20496;-84
2023/10/13 15:01:17;;;;;;;1.00;0.73;;;640.50;2048.00;;;;;;4959906;28;20031;-82
2023/10/13 15:03:44;;;;;;;0.93;0.80;;;640.30;2073.60;;;;;;4961013;28;20058;-83
2023/10/13 15:06:29;;;;;;;0.68;0.60;;;640.30;2124.80;;;;;;4959959;28;20030;-83
2023/10/13 15:08:57;;;;;;;3.20;0.63;;;640.10;2073.60;;;;;;4960191;28;20038;-82
2023/10/13 15:11:28;;;;;;;0.60;0.60;;;615.30;2124.80;;;;;;4960418;28;20069;-83
2023/10/13 15:13:55;;;;;;;0.40;0.40;;;615.00;2150.40;;;;;;4959916;28;20030;-83
2023/10/13 15:16:24;;;;;;;1.23;0.77;;;614.90;2176.00;;;;;;4960155;28;20027;-83
2023/10/13 15:18:52;;;;;;;1.15;0.80;;;614.80;2150.40;;;;;;4959302;28;20062;-83
2023/10/13 15:21:22;;;;;;;0.60;0.60;;;614.80;2150.40;;;;;;4960023;28;20033;-81
2023/10/13 15:23:51;;;;;;;0.65;0.52;;;614.60;2176.00;;;;;;4959651;28;20101;-84
2023/10/13 15:26:18;;;;;;;0.68;0.40;;;614.60;2150.40;;;;;;4959437;28;20027;-84
2023/10/13 15:28:53;;;;;;;0.35;0.35;;;589.40;2150.40;;;;;;4960006;28;20538;-81
2023/10/13 15:34:06;;;;;;;1.00;0.70;;;589.70;2150.40;;;;;;4976830;28;20066;-82
2023/10/13 15:36:35;;;;;;;0.40;0.40;;;589.70;2201.60;;;;;;4977032;28;20023;-82
2023/10/13 15:39:01;;;;;;;0.40;0.40;;;589.50;2201.60;;;;;;4959635;28;20047;-83
2023/10/13 15:41:28;;;;;;;0.50;0.50;;;589.50;2201.60;;;;;;4959087;28;20038;-84
2023/10/13 15:43:55;;;;;;;0.40;0.40;;;589.40;2201.60;;;;;;4976857;28;20023;-83
2023/10/13 15:46:22;;;;;;;0.43;0.43;;;589.40;2201.60;;;;;;4959540;28;20062;-82
2023/10/13 15:48:53;;;;;;;0.30;0.30;;;589.20;2201.60;;;;;;4959012;28;20035;-81
2023/10/13 15:51:20;;;;;;;0.40;0.40;;;589.20;2176.00;;;;;;4959893;28;20031;-84
2023/10/13 15:53:51;;;;;;;1.05;0.95;;;;;;;;;;4959362;28;20125;-83
2023/10/13 15:56:17;;;;;;;0.55;0.55;;;;;;;;;;4959428;28;20031;-83
2023/10/13 15:58:50;;;;;;;0.40;0.40;;;564.10;2252.80;;;;;;4964990;28;20026;-83
2023/10/13 16:01:16;;;;;;;0.60;0.60;;;564.00;2278.40;;;;;;4995735;28;20056;-82
2023/10/13 16:03:44;;;;;;;0.30;0.30;;;563.80;2278.40;;;;;;4991424;28;20058;-82
2023/10/13 16:06:10;;;;;;;0.50;0.50;;;563.60;2304.00;;;;;;4959146;28;20030;-82
2023/10/13 16:08:43;;;;;;;0.40;0.40;;;563.60;2304.00;;;;;;4958779;28;20031;-82
2023/10/13 16:11:14;;;;;;;0.50;0.50;;;563.50;2329.60;;;;;;4959259;28;20029;-81
2023/10/13 16:13:44;;;;;;;0.50;0.50;;;563.30;2329.60;;;;;;4960432;28;20035;-83
2023/10/13 16:16:26;;;;;;;0.50;0.50;;;563.30;2355.20;;;;;;4958893;28;20471;-84
2023/10/13 16:18:53;;;;;;;0.40;0.40;;;538.50;2329.60;;;;;;4958788;28;20038;-83
2023/10/13 16:21:20;;;;;;;0.50;0.50;;;538.00;2329.60;;;;;;4958879;28;20035;-85
2023/10/13 16:23:50;;;;;;;1.13;0.85;;;538.50;2355.20;;;;;;4958671;28;20038;-83
2023/10/13 16:26:22;;;;;;;1.88;1.00;;;538.40;2380.80;;;;;;4959489;28;20031;-83
2023/10/13 16:28:49;;;;;;;0.85;0.80;;;538.20;2380.80;;;;;;4958935;28;20042;-83
2023/10/13 16:31:14;;;;;;;0.68;0.68;;;538.50;2355.20;;;;;;4958952;28;20035;-82
2023/10/13 16:33:40;;;;;;;1.75;0.80;;;538.00;2380.80;;;;;;4963464;28;20701;-81
2023/10/13 16:36:09;;;;;;;0.65;0.65;;;538.00;2380.80;;;;;;4969986;28;20130;-84
2023/10/13 16:38:38;;;;;;;0.60;0.60;;;538.00;2380.80;;;;;;4959723;28;20033;-84
2023/10/13 16:41:12;;;;;;;0.70;0.70;;;538.00;2380.80;;;;;;4959031;28;20030;-83
2023/10/13 16:43:39;;;;;;;0.88;0.80;;;537.90;2380.80;;;;;;4958363;28;20034;-85
2023/10/13 16:46:11;;;;;;;1.02;0.93;;;537.80;2380.80;;;;;;4959080;28;20130;-81
2023/10/13 16:48:38;;;;;;;0.70;0.57;;;537.70;2406.40;;;;;;4958684;28;20066;-82
2023/10/13 16:51:05;;;;;;;1.23;1.10;;;512.40;2380.80;;;;;;4958599;28;20256;-82
2023/10/13 16:53:32;;;;;;;1.35;0.77;;;512.80;2380.80;;;;;;4942916;28;20058;-82
2023/10/13 16:56:02;;;;;;;0.65;0.65;;;;;;;;;;4958839;28;20086;-85
2023/10/13 16:58:30;;;;;;;0.68;0.68;;;512.90;2380.80;;;;;;4958294;28;20023;-83
2023/10/13 17:00:56;;;;;;;1.30;0.77;;;512.80;2380.80;;;;;;4959223;28;20546;-82
2023/10/13 17:03:30;;;;;;;1.10;0.80;;;512.50;2380.80;;;;;;4963391;28;20090;-82
2023/10/13 17:06:01;;;;;;;0.70;0.70;;;512.30;2380.80;;;;;;4972453;28;20038;-81
2023/10/13 17:08:31;;;;;;;0.70;0.70;;;512.30;2380.80;;;;;;4967704;28;20038;-81
2023/10/13 17:11:07;;;;;;;0.50;0.50;;;512.30;2380.80;;;;;;4960593;28;20618;-78
2023/10/13 17:13:33;;;;;;;0.50;0.50;;;512.20;2380.80;;;;;;4957896;28;20023;-79
2023/10/13 17:15:59;;;;;;;0.98;0.80;;;512.20;2380.80;;;;;;4963690;28;20029;-78
2023/10/13 17:18:28;;;;;;;0.70;0.70;;;512.10;2380.80;;;;;;4967247;28;20042;-79
2023/10/13 17:20:55;;;;;;;0.85;0.70;;;512.00;2380.80;;;;;;4971038;28;20030;-81
2023/10/13 17:23:21;;;;;;;0.70;0.68;;;512.00;2380.80;;;;;;4960230;28;20419;-78
2023/10/13 17:25:47;;;;;;;0.85;0.77;;;487.30;2380.80;;;;;;4980326;28;20022;-79